Lead Hill, AR (72630)

4:07 PM CDT on September 04, 2015 (GMT -0500)
Magness Addtition | | Change Station
CLOSE
Current Station
Personal Weather Station
Location: Lead Hill, AR
Elevation: 839 ft
Nearby Weather Stations

Elev 839 ft 36.42 °N, 92.91 °W | Updated 2 minutes ago

Partly Cloudy
Partly Cloudy
93.9 °F
Feels Like 102 °F
N
0.0
Wind Variable Wind from ESE
Gusts 0.0 mph

Today
High -- | Low -- °F
--% Chance of Precip.
Yesterday
High -- | Low -- °F
Precip. -- in
6:45 AM 7:35 PM
Waning Gibbous, 56% visible
Pressure 29.98 in
Visibility 10.0 miles
Clouds Few 6000 ft
Heat Index 102 °F
Dew Point 72 °F
Humidity 49%
Rainfall 0.00 in
Snow Depth Not available.
UV 6 out of 12
Pollen 11.10 out of 12
Air Quality Not available.
Flu Activity Not available.
METAR KHRO 042053Z AUTO 12008KT 10SM FEW060 31/19 A3002 RMK AO2 SLP150 T03110194 58014
Pressure 29.98 in
Visibility 10.0 miles
Clouds Few 6000 ft
Heat Index 102 °F
Dew Point 72 °F
Humidity 49%
Rainfall 0.00 in
Snow Depth Not available.
UV 6 out of 12
Pollen 11.10 out of 12
Air Quality Not available.
Flu Activity Not available.
METAR KHRO 042053Z AUTO 12008KT 10SM FEW060 31/19 A3002 RMK AO2 SLP150 T03110194 58014

10-Day Weather Forecast

×

Almanac

Astronomy

Sep. 04, 2015 Rise Set
Actual Time
Civil Twilight
Nautical Twilight
Astronomical Twilight
Moon
Length of Visible Light
Length of Day
Tomorrow will be .
, % of the Moon is Illuminated

Today's Extremes

State Highs State Lows

Community

WunderPhotos

Upload Photos

1,852,290 photos uploaded!

WunderBlogs® & News

Nearby

Air Quality

  Air Quality AQ Index Pollutant
Not available.

Snow Depth

Station Depth Elevation

Earthquake Activity

City Distance Mag. Time & Date
Minimum magnitude displayed is 2.5.

Coastal Water Temperatures

Place Temperature

Stations

Nearby Weather Stations

Station Location Temp. Windchill Dew Point Humidity Wind Precip. Elev Updated Type